createdAt,value
2019-01-14T00:02:14.004Z,4.30
2019-01-14T00:04:42.314Z,3.90
2019-01-14T00:07:10.582Z,4.20
2019-01-14T00:09:41.816Z,4.83
2019-01-14T00:12:10.122Z,4.60
2019-01-14T00:14:38.429Z,4.87
2019-01-14T00:17:06.715Z,4.13
2019-01-14T00:19:35.021Z,4.70
2019-01-14T00:22:03.368Z,4.23
2019-01-14T00:24:31.642Z,4.53
2019-01-14T00:27:00.098Z,5.50
2019-01-14T00:29:28.373Z,3.63
2019-01-14T00:31:56.643Z,4.87
2019-01-14T00:34:25.341Z,4.60
2019-01-14T00:36:53.689Z,4.60
2019-01-14T00:39:21.960Z,3.72
2019-01-14T00:41:50.352Z,4.83
2019-01-14T00:44:18.632Z,3.17
2019-01-14T00:46:47.070Z,3.65
2019-01-14T00:49:16.336Z,3.80
2019-01-14T00:51:44.618Z,3.97
2019-01-14T00:54:12.916Z,3.30
2019-01-14T00:56:41.226Z,3.92
2019-01-14T00:59:09.518Z,3.45
2019-01-14T01:01:37.856Z,3.57
2019-01-14T01:04:06.452Z,3.57
2019-01-14T01:06:34.807Z,3.93
2019-01-14T01:09:04.780Z,3.60
2019-01-14T01:11:33.174Z,3.80
2019-01-14T01:14:01.629Z,3.77
2019-01-14T01:16:29.932Z,3.87
2019-01-14T01:19:00.026Z,4.13
2019-01-14T01:21:28.338Z,5.33
2019-01-14T01:23:56.763Z,5.25
2019-01-14T01:26:27.260Z,4.15
2019-01-14T01:28:55.528Z,4.57
2019-01-14T01:31:23.876Z,4.50
2019-01-14T01:33:52.187Z,4.70
2019-01-14T01:36:20.471Z,4.40
2019-01-14T01:38:50.150Z,4.62
2019-01-14T01:41:19.609Z,4.72
2019-01-14T01:43:48.119Z,4.40
2019-01-14T01:46:16.387Z,4.33
2019-01-14T01:48:47.563Z,4.57
2019-01-14T01:51:15.845Z,4.12
2019-01-14T01:53:45.754Z,4.60
2019-01-14T01:56:14.059Z,4.50
2019-01-14T01:58:42.331Z,4.80
2019-01-14T02:01:10.602Z,4.33
2019-01-14T02:03:42.605Z,5.00
2019-01-14T02:06:10.877Z,4.53
2019-01-14T02:08:39.157Z,4.40
2019-01-14T02:11:07.633Z,4.37
2019-01-14T02:13:37.007Z,4.77
2019-01-14T02:16:05.279Z,4.70
2019-01-14T02:18:37.005Z,4.30
2019-01-14T02:21:05.492Z,2.10
2019-01-14T02:23:36.957Z,1.87
2019-01-14T02:26:05.253Z,1.57
2019-01-14T02:28:34.701Z,1.67
2019-01-14T02:31:03.025Z,1.12
2019-01-14T02:33:31.374Z,1.23
2019-01-14T02:35:59.979Z,1.80
2019-01-14T02:38:29.995Z,1.30
2019-01-14T02:40:58.293Z,1.60
2019-01-14T02:43:29.901Z,1.40
2019-01-14T02:46:03.314Z,2.20
2019-01-14T02:48:37.459Z,1.87
2019-01-14T02:51:12.043Z,1.77
2019-01-14T02:53:47.259Z,1.70
2019-01-14T02:56:17.369Z,1.73
2019-01-14T02:58:53.204Z,1.82
2019-01-14T03:01:22.377Z,1.70
2019-01-14T03:03:50.844Z,1.90
2019-01-14T03:06:19.119Z,1.95
2019-01-14T03:08:48.426Z,1.82
2019-01-14T03:11:16.804Z,2.17
2019-01-14T03:13:48.456Z,2.13
2019-01-14T03:16:16.841Z,2.40
2019-01-14T03:18:45.145Z,3.40
2019-01-14T03:21:13.410Z,2.77
2019-01-14T03:23:41.754Z,2.93
2019-01-14T03:26:10.126Z,2.70
2019-01-14T03:28:38.496Z,2.40
2019-01-14T03:31:06.794Z,2.63
2019-01-14T03:33:36.206Z,2.05
2019-01-14T03:36:04.678Z,2.47
2019-01-14T03:38:32.968Z,1.87
2019-01-14T03:41:04.266Z,2.43
2019-01-14T03:43:32.686Z,3.13
2019-01-14T03:46:00.970Z,2.83
2019-01-14T03:48:29.363Z,2.90
2019-01-14T03:50:57.619Z,2.40
2019-01-14T03:53:25.982Z,2.70
2019-01-14T03:55:54.276Z,2.20
2019-01-14T03:58:25.108Z,3.50
2019-01-14T04:00:53.483Z,3.87
2019-01-14T04:03:21.767Z,3.50
2019-01-14T04:05:51.514Z,3.67
2019-01-14T04:08:19.815Z,3.60
2019-01-14T04:10:48.465Z,4.20
2019-01-14T04:13:16.738Z,4.50
2019-01-14T04:15:45.816Z,4.10
2019-01-14T04:18:14.209Z,3.57
2019-01-14T04:20:43.791Z,4.27
2019-01-14T04:23:12.388Z,3.67
2019-01-14T04:25:40.674Z,4.70
2019-01-14T04:28:09.145Z,4.77
2019-01-14T04:30:37.756Z,3.60
2019-01-14T04:33:06.102Z,3.47
2019-01-14T04:35:37.166Z,3.63
2019-01-14T04:38:07.622Z,3.00
2019-01-14T04:40:36.056Z,3.15
2019-01-14T04:43:04.432Z,2.73
2019-01-14T04:45:32.925Z,3.27
2019-01-14T04:48:01.207Z,2.30
2019-01-14T04:50:30.494Z,2.80
2019-01-14T04:52:58.923Z,2.93
2019-01-14T04:55:29.733Z,2.37
2019-01-14T04:57:58.022Z,2.00
2019-01-14T05:00:26.369Z,2.60
2019-01-14T05:02:54.967Z,2.30
2019-01-14T05:05:25.385Z,3.10
2019-01-14T05:07:53.663Z,2.37
2019-01-14T05:10:25.006Z,3.00
2019-01-14T05:12:53.601Z,2.37
2019-01-14T05:15:23.555Z,2.55
2019-01-14T05:17:52.456Z,2.03
2019-01-14T05:20:23.566Z,1.97
2019-01-14T05:22:52.186Z,2.10
2019-01-14T05:25:23.327Z,2.90
2019-01-14T05:27:51.714Z,2.07
2019-01-14T05:30:20.538Z,2.20
2019-01-14T05:32:50.584Z,2.00
2019-01-14T05:35:18.890Z,2.63
2019-01-14T05:37:51.741Z,2.30
2019-01-14T05:40:22.643Z,2.60
2019-01-14T05:42:51.134Z,2.10
2019-01-14T05:45:19.515Z,2.23
2019-01-14T05:47:47.784Z,2.23
2019-01-14T05:50:16.559Z,2.33
2019-01-14T05:52:46.211Z,2.95
2019-01-14T05:55:15.459Z,3.40
2019-01-14T05:57:43.758Z,3.08
2019-01-14T06:00:18.023Z,2.23
2019-01-14T06:02:46.352Z,2.67
2019-01-14T06:05:16.369Z,2.73
2019-01-14T06:07:45.163Z,2.97
2019-01-14T06:10:13.711Z,2.60
2019-01-14T06:12:42.023Z,3.12
2019-01-14T06:15:12.741Z,2.73
2019-01-14T06:17:41.008Z,2.50
2019-01-14T06:20:12.683Z,2.23
2019-01-14T06:22:41.029Z,3.00
2019-01-14T06:25:11.215Z,2.40
2019-01-14T06:27:39.592Z,2.45
2019-01-14T06:30:14.315Z,2.27
2019-01-14T06:32:42.595Z,2.27
2019-01-14T06:35:11.001Z,2.57
2019-01-14T06:37:39.282Z,2.50
2019-01-14T06:40:10.693Z,2.60
2019-01-14T06:42:39.246Z,2.63
2019-01-14T06:45:14.276Z,2.40
2019-01-14T06:47:42.580Z,2.08
2019-01-14T06:50:15.630Z,2.77
2019-01-14T06:52:44.338Z,2.58
2019-01-14T06:55:14.324Z,2.73
2019-01-14T06:57:42.698Z,3.40
2019-01-14T07:00:14.311Z,3.30
2019-01-14T07:02:42.822Z,2.83
2019-01-14T07:05:11.174Z,2.27
2019-01-14T07:07:39.458Z,2.80
2019-01-14T07:10:12.264Z,2.30
2019-01-14T07:12:40.602Z,2.40
2019-01-14T07:15:09.182Z,2.10
2019-01-14T07:17:39.080Z,1.93
2019-01-14T07:20:10.228Z,2.10
2019-01-14T07:22:38.748Z,2.30
2019-01-14T07:25:09.969Z,2.30
2019-01-14T07:27:38.468Z,3.53
2019-01-14T07:30:23.094Z,2.40
2019-01-14T07:32:51.550Z,2.37
2019-01-14T07:35:20.296Z,2.40
2019-01-14T07:37:48.685Z,2.83
2019-01-14T07:40:18.999Z,3.00
2019-01-14T07:42:48.208Z,3.00
2019-01-14T07:45:17.974Z,3.40
2019-01-14T07:47:46.237Z,3.97
2019-01-14T07:50:17.310Z,2.85
2019-01-14T07:52:45.744Z,3.60
2019-01-14T07:55:14.055Z,3.10
2019-01-14T07:57:42.370Z,3.80
2019-01-14T08:00:13.913Z,3.97
2019-01-14T08:02:42.344Z,3.63
2019-01-14T08:05:10.702Z,4.00
2019-01-14T08:07:39.053Z,4.03
2019-01-14T08:10:08.545Z,4.10
2019-01-14T08:12:36.961Z,5.20
2019-01-14T08:15:12.241Z,4.57
2019-01-14T08:17:40.514Z,4.20
2019-01-14T08:20:12.077Z,4.50
2019-01-14T08:22:40.477Z,3.90
2019-01-14T08:25:13.791Z,3.60
2019-01-14T08:27:43.511Z,2.93
2019-01-14T08:30:15.682Z,2.90
2019-01-14T08:32:46.697Z,2.73
2019-01-14T08:35:14.982Z,3.15
2019-01-14T08:37:44.597Z,2.87
2019-01-14T08:40:14.995Z,3.40
2019-01-14T08:42:43.325Z,3.40
2019-01-14T08:45:12.863Z,3.30
2019-01-14T08:47:44.261Z,3.70
2019-01-14T08:50:18.376Z,3.40
2019-01-14T08:52:46.951Z,3.12
2019-01-14T08:55:15.315Z,3.73
2019-01-14T08:57:43.576Z,3.63
2019-01-14T09:00:18.134Z,3.60
2019-01-14T09:02:46.686Z,2.97
2019-01-14T09:05:15.234Z,3.27
2019-01-14T09:07:43.652Z,3.03
2019-01-14T09:10:35.474Z,2.57
2019-01-14T09:13:05.171Z,3.03
2019-01-14T09:15:35.647Z,2.50
2019-01-14T09:18:04.029Z,3.50
2019-01-14T09:20:32.413Z,2.87
2019-01-14T09:23:00.697Z,2.53
2019-01-14T09:25:30.326Z,2.50
2019-01-14T09:27:58.696Z,2.90
2019-01-14T09:30:29.907Z,3.53
2019-01-14T09:32:59.477Z,3.53
2019-01-14T09:35:29.054Z,3.30
2019-01-14T09:37:57.380Z,2.70
2019-01-14T09:40:25.936Z,2.70
2019-01-14T09:42:54.214Z,3.10
2019-01-14T09:45:22.600Z,2.00
2019-01-14T09:47:50.911Z,2.70
2019-01-14T09:50:21.401Z,3.08
2019-01-14T09:52:49.881Z,2.20
2019-01-14T09:55:18.812Z,2.40
2019-01-14T09:57:47.263Z,2.72
2019-01-14T10:00:15.632Z,2.85
2019-01-14T10:02:47.342Z,5.50
2019-01-14T10:05:17.022Z,2.97
2019-01-14T10:07:46.345Z,1.90
2019-01-14T10:10:16.152Z,2.60
2019-01-14T10:12:44.502Z,2.90
2019-01-14T10:15:15.798Z,2.45
2019-01-14T10:17:44.800Z,2.17
2019-01-14T10:20:13.981Z,2.37
2019-01-14T10:22:42.590Z,2.13
2019-01-14T10:25:10.908Z,1.80
2019-01-14T10:27:42.430Z,2.47
2019-01-14T10:30:14.704Z,1.50
2019-01-14T10:32:43.046Z,1.95
2019-01-14T10:35:11.670Z,1.57
2019-01-14T10:37:40.194Z,1.70
2019-01-14T10:40:14.976Z,1.37
2019-01-14T10:42:43.488Z,1.47
2019-01-14T10:45:15.582Z,2.00
2019-01-14T10:47:44.000Z,2.00
2019-01-14T10:50:13.199Z,1.30
2019-01-14T10:52:41.714Z,1.53
2019-01-14T10:55:12.427Z,1.72
2019-01-14T10:57:40.620Z,1.50
2019-01-14T11:00:12.220Z,1.87
2019-01-14T11:02:42.216Z,2.00
2019-01-14T11:05:11.524Z,1.67
2019-01-14T11:07:39.897Z,1.57
2019-01-14T11:10:10.325Z,1.67
2019-01-14T11:12:43.313Z,1.30
2019-01-14T11:15:14.386Z,2.10
2019-01-14T11:17:42.671Z,1.22
2019-01-14T11:20:26.169Z,1.93
2019-01-14T11:22:54.454Z,2.03
2019-01-14T11:25:25.997Z,1.40
2019-01-14T11:27:56.371Z,2.27
2019-01-14T11:30:28.854Z,1.83
2019-01-14T11:32:59.916Z,1.52
2019-01-14T11:35:28.216Z,1.53
2019-01-14T11:37:57.893Z,1.67
2019-01-14T11:40:34.526Z,1.63
2019-01-14T11:43:03.107Z,1.52
2019-01-14T11:45:31.465Z,1.53
2019-01-14T11:47:59.805Z,2.33
2019-01-14T11:50:28.189Z,1.77
2019-01-14T11:52:56.477Z,1.70
2019-01-14T11:55:26.662Z,1.90
2019-01-14T11:57:55.867Z,2.00
2019-01-14T12:00:26.499Z,1.77
2019-01-14T12:02:56.513Z,2.77
2019-01-14T12:05:24.888Z,1.73
2019-01-14T12:07:54.781Z,1.93
2019-01-14T12:10:24.618Z,1.85
2019-01-14T12:12:52.944Z,1.80
2019-01-14T12:15:24.021Z,1.57
2019-01-14T12:17:52.374Z,1.80
2019-01-14T12:20:21.885Z,1.72
2019-01-14T12:22:50.191Z,1.80
2019-01-14T12:25:19.926Z,2.30
2019-01-14T12:27:49.175Z,2.23
2019-01-14T12:30:28.937Z,2.53
2019-01-14T12:32:57.925Z,1.60
2019-01-14T12:35:29.257Z,1.87
2019-01-14T12:37:58.841Z,1.50
2019-01-14T12:40:27.250Z,1.75
2019-01-14T12:42:55.693Z,2.15
2019-01-14T12:45:25.659Z,1.87
2019-01-14T12:47:53.933Z,1.93
2019-01-14T12:50:23.797Z,1.40
2019-01-14T12:52:52.240Z,2.30
2019-01-14T12:55:20.573Z,2.30
2019-01-14T12:57:48.911Z,2.42
2019-01-14T13:00:29.898Z,1.57
2019-01-14T13:02:58.923Z,1.87
2019-01-14T13:05:30.170Z,1.80
2019-01-14T13:07:59.772Z,1.80
2019-01-14T13:10:31.006Z,2.10
2019-01-14T13:12:59.426Z,2.10
2019-01-14T13:15:29.181Z,1.60
2019-01-14T13:17:57.498Z,1.90
2019-01-14T13:20:29.349Z,1.50
2019-01-14T13:22:57.926Z,2.03
2019-01-14T13:25:30.231Z,1.70
2019-01-14T13:27:58.754Z,2.50
2019-01-14T13:30:28.559Z,1.73
2019-01-14T13:32:57.195Z,1.95
2019-01-14T13:35:26.166Z,1.42
2019-01-14T13:37:56.561Z,2.30
2019-01-14T13:40:24.898Z,1.70
2019-01-14T13:42:54.627Z,2.10
2019-01-14T13:45:23.444Z,1.80
2019-01-14T13:47:51.889Z,1.60
2019-01-14T13:50:30.203Z,2.42
2019-01-14T13:53:00.395Z,1.87
2019-01-14T13:55:29.070Z,1.40
2019-01-14T13:57:59.987Z,1.83
2019-01-14T14:00:27.574Z,2.10
2019-01-14T14:03:00.400Z,2.17
2019-01-14T14:05:31.800Z,2.47
2019-01-14T14:08:00.384Z,1.60
2019-01-14T14:10:29.422Z,2.03
2019-01-14T14:12:57.796Z,1.73
2019-01-14T14:15:26.238Z,2.00
2019-01-14T14:17:54.642Z,1.37
2019-01-14T14:20:24.682Z,1.67
2019-01-14T14:22:55.469Z,1.20
2019-01-14T14:25:23.752Z,1.37
2019-01-14T14:27:53.461Z,1.80
2019-01-14T14:30:30.689Z,1.40
2019-01-14T14:32:59.576Z,1.80
2019-01-14T14:35:29.577Z,1.42
2019-01-14T14:38:01.310Z,1.20
2019-01-14T14:40:27.858Z,1.43
2019-01-14T14:42:56.208Z,1.23
2019-01-14T14:45:24.510Z,1.10
2019-01-14T14:47:52.783Z,1.43
2019-01-14T14:50:21.535Z,1.53
2019-01-14T14:52:49.966Z,1.70
2019-01-14T14:55:19.437Z,1.40
2019-01-14T14:57:47.828Z,1.63
2019-01-14T15:00:22.806Z,1.90
2019-01-14T15:02:51.218Z,2.13
2019-01-14T15:05:19.521Z,1.33
2019-01-14T15:07:47.809Z,1.60
2019-01-14T15:10:19.097Z,1.40
2019-01-14T15:12:47.487Z,1.63
2019-01-14T15:15:17.395Z,1.92
2019-01-14T15:17:45.760Z,1.97
2019-01-14T15:20:16.197Z,2.27
2019-01-14T15:22:44.721Z,1.50
2019-01-14T15:25:13.758Z,1.97
2019-01-14T15:27:43.339Z,1.97
2019-01-14T15:30:20.063Z,2.27
2019-01-14T15:32:48.326Z,2.00
2019-01-14T15:35:16.751Z,2.20
2019-01-14T15:37:46.328Z,1.87
2019-01-14T15:40:16.719Z,1.77
2019-01-14T15:42:45.224Z,1.87
2019-01-14T15:45:19.757Z,1.47
2019-01-14T15:47:48.091Z,1.55
2019-01-14T15:50:19.869Z,1.53
2019-01-14T15:52:48.215Z,1.73
2019-01-14T15:55:24.313Z,1.80
2019-01-14T15:57:52.933Z,2.07
2019-01-14T16:00:22.272Z,2.47
2019-01-14T16:02:50.639Z,1.50
2019-01-14T16:05:19.318Z,1.73
2019-01-14T16:07:48.011Z,2.00
2019-01-14T16:10:42.745Z,1.90
2019-01-14T16:13:11.227Z,1.93
2019-01-14T16:15:39.570Z,1.83
2019-01-14T16:18:07.874Z,1.77
2019-01-14T16:20:36.921Z,2.37
2019-01-14T16:23:05.323Z,1.90
2019-01-14T16:25:34.446Z,2.35
2019-01-14T16:28:02.714Z,2.27
2019-01-14T16:30:31.047Z,2.42
2019-01-14T16:32:59.759Z,2.03
2019-01-14T16:35:29.294Z,2.85
2019-01-14T16:37:57.691Z,2.60
2019-01-14T16:40:26.172Z,2.30
2019-01-14T16:42:54.756Z,2.67
2019-01-14T16:45:23.678Z,2.20
2019-01-14T16:47:51.993Z,1.97
2019-01-14T16:50:20.273Z,2.13
2019-01-14T16:52:50.298Z,2.27
2019-01-14T16:55:20.237Z,3.05
2019-01-14T16:57:49.044Z,1.95
2019-01-14T17:00:18.265Z,2.07
2019-01-14T17:02:51.227Z,2.73
2019-01-14T17:05:20.682Z,2.57
2019-01-14T17:07:49.316Z,2.17
2019-01-14T17:10:25.019Z,2.33
2019-01-14T17:12:47.920Z,2.13
2019-01-14T17:15:16.911Z,2.00
2019-01-14T17:17:46.632Z,2.00
2019-01-14T17:20:17.732Z,1.80
2019-01-14T17:22:48.978Z,2.23
2019-01-14T17:25:17.378Z,1.93
2019-01-14T17:27:45.655Z,2.30
2019-01-14T17:30:18.827Z,2.23
2019-01-14T17:32:48.195Z,2.30
2019-01-14T17:35:16.533Z,2.27
2019-01-14T17:37:44.812Z,2.30
2019-01-14T17:40:18.758Z,2.22
2019-01-14T17:42:47.060Z,2.20
2019-01-14T17:45:15.404Z,2.67
2019-01-14T17:47:45.358Z,2.87
2019-01-14T17:50:19.009Z,3.10
2019-01-14T17:52:47.685Z,2.60
2019-01-14T17:55:16.157Z,2.40
2019-01-14T17:57:45.621Z,2.70
2019-01-14T18:00:21.002Z,3.97
2019-01-14T18:02:49.309Z,2.73
2019-01-14T18:05:17.687Z,2.73
2019-01-14T18:07:47.596Z,2.60
2019-01-14T18:10:19.405Z,2.60
2019-01-14T18:12:48.868Z,2.80
2019-01-14T18:15:22.630Z,2.87
2019-01-14T18:17:50.920Z,3.10
2019-01-14T18:20:19.265Z,3.27
2019-01-14T18:22:47.695Z,2.47
2019-01-14T18:25:17.626Z,2.60
2019-01-14T18:27:46.010Z,2.40
2019-01-14T18:30:19.865Z,2.70
2019-01-14T18:32:51.214Z,3.13
2019-01-14T18:35:20.697Z,3.17
2019-01-14T18:37:48.989Z,2.90
2019-01-14T18:40:18.959Z,3.23
2019-01-14T18:42:52.689Z,3.30
2019-01-14T18:45:22.515Z,2.80
2019-01-14T18:47:52.150Z,2.35
2019-01-14T18:50:21.091Z,2.67
2019-01-14T18:52:51.963Z,2.83
2019-01-14T18:55:20.598Z,2.90
2019-01-14T18:57:48.942Z,2.97
2019-01-14T19:00:21.498Z,2.80
2019-01-14T19:02:52.116Z,2.43
2019-01-14T19:05:20.496Z,2.90
2019-01-14T19:07:51.881Z,2.50
2019-01-14T19:10:20.347Z,2.27
2019-01-14T19:12:48.820Z,3.37
2019-01-14T19:15:18.831Z,2.47
2019-01-14T19:17:50.224Z,3.13
2019-01-14T19:20:20.778Z,2.22
2019-01-14T19:22:49.052Z,3.43
2019-01-14T19:25:17.349Z,2.70
2019-01-14T19:27:45.774Z,3.00
2019-01-14T19:30:19.635Z,3.27
2019-01-14T19:32:48.058Z,3.10
2019-01-14T19:35:16.505Z,3.35
2019-01-14T19:37:47.750Z,2.97
2019-01-14T19:40:18.358Z,3.70
2019-01-14T19:42:46.776Z,3.07
2019-01-14T19:45:17.802Z,3.00
2019-01-14T19:47:46.138Z,3.00
2019-01-14T19:50:20.665Z,3.30
2019-01-14T19:52:49.012Z,3.25
2019-01-14T19:55:17.364Z,2.97
2019-01-14T19:57:47.000Z,3.47
2019-01-14T20:00:18.368Z,3.73
2019-01-14T20:02:46.712Z,3.10
2019-01-14T20:05:15.179Z,3.87
2019-01-14T20:07:43.516Z,4.37
2019-01-14T20:10:14.562Z,4.17
2019-01-14T20:12:43.003Z,3.87
2019-01-14T20:15:16.726Z,3.57
2019-01-14T20:17:45.012Z,3.60
2019-01-14T20:20:14.968Z,3.10
2019-01-14T20:22:43.332Z,3.33
2019-01-14T20:25:12.184Z,3.70
2019-01-14T20:27:40.579Z,4.00
2019-01-14T20:30:14.483Z,3.55
2019-01-14T20:32:42.910Z,3.23
2019-01-14T20:35:11.284Z,3.98
2019-01-14T20:37:40.240Z,3.27
2019-01-14T20:40:12.430Z,3.73
2019-01-14T20:42:42.820Z,4.53
2019-01-14T20:45:15.850Z,4.85
2019-01-14T20:47:44.238Z,5.03
2019-01-14T20:50:14.694Z,4.17
2019-01-14T20:52:43.098Z,5.00
2019-01-14T20:55:11.383Z,5.70
2019-01-14T20:57:39.805Z,6.50
2019-01-14T21:00:16.993Z,6.40
2019-01-14T21:02:45.465Z,5.90
2019-01-14T21:05:14.118Z,6.77
2019-01-14T21:07:42.470Z,6.53
2019-01-14T21:10:12.782Z,7.23
2019-01-14T21:12:41.270Z,8.13
2019-01-14T21:15:11.249Z,11.37
2019-01-14T21:17:41.905Z,11.57
2019-01-14T21:20:16.437Z,10.97
2019-01-14T21:22:45.443Z,9.00
2019-01-14T21:25:14.914Z,9.13
2019-01-14T21:27:44.192Z,8.17
2019-01-14T21:30:18.273Z,8.77
2019-01-14T21:32:49.588Z,8.97
2019-01-14T21:35:18.190Z,8.80
2019-01-14T21:37:49.565Z,9.20
2019-01-14T21:40:17.849Z,7.80
2019-01-14T21:42:46.226Z,8.80
2019-01-14T21:45:17.986Z,8.53
2019-01-14T21:47:46.325Z,8.60
2019-01-14T21:50:17.228Z,8.03
2019-01-14T21:52:47.533Z,9.30
2019-01-14T21:55:20.795Z,9.70
2019-01-14T21:57:50.550Z,9.30
2019-01-14T22:00:26.079Z,9.65
2019-01-14T22:02:54.622Z,9.17
2019-01-14T22:05:22.948Z,9.00
2019-01-14T22:07:51.289Z,8.83
2019-01-14T22:10:24.911Z,9.13
2019-01-14T22:12:53.384Z,10.30
2019-01-14T22:15:21.672Z,10.63
2019-01-14T22:17:51.023Z,10.60
2019-01-14T22:20:23.929Z,10.53
2019-01-14T22:22:52.589Z,9.90
2019-01-14T22:25:21.940Z,9.87
2019-01-14T22:27:50.321Z,11.30
2019-01-14T22:30:21.813Z,10.63
2019-01-14T22:32:51.779Z,10.57
2019-01-14T22:35:20.211Z,11.48
2019-01-14T22:37:48.516Z,10.23
2019-01-14T22:40:16.833Z,11.47
2019-01-14T22:42:45.115Z,11.80
2019-01-14T22:45:16.632Z,10.87
2019-01-14T22:47:44.932Z,12.28
2019-01-14T22:50:15.473Z,12.43
2019-01-14T22:52:43.792Z,12.15
2019-01-14T22:55:12.135Z,14.50
2019-01-14T22:57:40.404Z,12.40
2019-01-14T23:00:28.039Z,11.87
2019-01-14T23:02:59.027Z,12.93
2019-01-14T23:05:30.518Z,11.33
2019-01-14T23:07:58.843Z,14.37
2019-01-14T23:10:30.386Z,14.07
2019-01-14T23:12:58.662Z,15.00
2019-01-14T23:15:27.315Z,13.27
2019-01-14T23:17:55.713Z,14.37
2019-01-14T23:20:25.162Z,14.40
2019-01-14T23:22:53.650Z,13.53
2019-01-14T23:25:22.140Z,13.58
2019-01-14T23:27:50.439Z,13.53
2019-01-14T23:30:18.762Z,14.03
2019-01-14T23:32:47.074Z,13.38
2019-01-14T23:35:16.974Z,14.37
2019-01-14T23:37:45.262Z,13.10
2019-01-14T23:40:17.790Z,14.27
2019-01-14T23:42:48.733Z,14.30
2019-01-14T23:45:18.274Z,14.43
2019-01-14T23:47:48.624Z,14.33
2019-01-14T23:50:17.351Z,13.58
2019-01-14T23:52:48.336Z,13.57
2019-01-14T23:55:16.660Z,12.90
2019-01-14T23:57:46.240Z,13.10
